Terminal Aerodrome Forecast
Issued by NWS

Home | Current Version | Previous Version | Text Only | Print | Product List | Glossary Off
Versions: 1 2 3 4 5 6 7 8 9 10 11 12 13 14 15 16 17 18 19 20 21 22 23 24 25 26 27 28 29

544
FTUS43 KLOT 282156 AAC
TAFMDW
TAF AMD
KMDW 282156Z 2822/2918 29011G17KT P6SM FEW045 SCT250
     FM282330 27010KT P6SM VCSH BKN040
     FM290130 25007KT P6SM SCT100
     FM291500 26013G21KT P6SM SCT060=

USA.gov is the U.S. government's official web portal to all federal, state and local government web resources and services.